Time;durP1;ratioP1;P1;durP2;ratioP2;P2;SDS_P1;SDS_P2;PMS_P1;PMS_P2;Temp;Humidity;BMP_temperature;BMP_pressure;BME280_temperature;BME280_humidity;BME280_pressure;Samples;Min_cycle;Max_cycle;Signal;HPM_P1;HPM_P2
2022/06/11 00:00:20;;;;;;;2.35;2.10;;;12.50;1.00;13.10;94731.00;;;;7389288;19;20243;-75
2022/06/11 00:02:53;;;;;;;4.32;1.90;;;12.50;1.00;13.10;94736.00;;;;7390745;19;20133;-75
2022/06/11 00:05:21;;;;;;;4.55;2.30;;;12.40;1.00;13.10;94720.00;;;;7391965;19;21915;-76
2022/06/11 00:07:49;;;;;;;4.88;2.20;;;12.40;1.00;13.10;94734.00;;;;7390319;19;21112;-76
2022/06/11 00:10:24;;;;;;;6.45;2.58;;;12.40;1.00;13.20;94744.00;;;;7387759;19;20625;-75
2022/06/11 00:12:52;;;;;;;3.83;2.00;;;12.40;1.00;13.10;94730.00;;;;7390840;19;20159;-77
2022/06/11 00:15:19;;;;;;;4.53;2.10;;;12.50;1.00;13.20;94739.00;;;;7389976;19;20132;-75
2022/06/11 00:17:53;;;;;;;5.32;2.30;;;12.50;1.00;13.10;94734.00;;;;7387331;19;20148;-75
2022/06/11 00:20:20;;;;;;;5.13;2.30;;;12.50;1.00;13.10;94749.00;;;;7392679;19;21759;-75
2022/06/11 00:22:47;;;;;;;3.95;2.25;;;12.50;1.00;13.10;94741.00;;;;7390215;19;20149;-76
2022/06/11 00:25:21;;;;;;;4.82;2.22;;;12.40;1.00;13.20;94728.00;;;;7389561;19;20141;-76
2022/06/11 00:27:49;;;;;;;3.75;2.05;;;12.40;1.00;13.30;94734.00;;;;7389646;19;20152;-77
2022/06/11 00:30:19;;;;;;;5.85;2.00;;;12.40;1.00;13.20;94722.00;;;;7391400;19;20164;-75
2022/06/11 00:32:55;;;;;;;3.70;1.98;;;12.40;1.00;13.30;94713.00;;;;7390373;19;20515;-75
2022/06/11 00:35:29;;;;;;;3.92;1.90;;;12.40;1.00;13.20;94730.00;;;;7388851;19;20476;-76
2022/06/11 00:38:04;;;;;;;4.82;1.92;;;12.50;1.00;13.10;94720.00;;;;7387336;19;20475;-75
2022/06/11 00:40:34;;;;;;;4.53;2.30;;;12.50;1.00;13.10;94729.00;;;;7392005;19;20140;-76
2022/06/11 00:43:04;;;;;;;5.55;1.95;;;12.50;1.00;13.10;94747.00;;;;7389550;19;21116;-75
2022/06/11 00:46:35;;;;;;;4.93;2.20;;;12.40;1.00;13.00;94745.00;;;;7388567;19;20617;-75
2022/06/11 00:49:14;;;;;;;3.83;1.75;;;12.50;1.00;13.00;94720.00;;;;7388744;19;20154;-76
2022/06/11 00:51:53;;;;;;;3.75;1.88;;;12.50;1.00;13.00;94718.00;;;;7390347;19;20129;-75
2022/06/11 00:54:41;;;;;;;4.57;2.00;;;12.50;1.00;13.10;94722.00;;;;7387339;19;20165;-75
2022/06/11 00:57:16;;;;;;;3.17;1.90;;;12.40;1.00;13.00;94715.00;;;;7387708;19;20128;-75
2022/06/11 00:59:51;;;;;;;4.13;2.20;;;12.30;1.00;12.90;94726.00;;;;7389320;19;20132;-76
2022/06/11 01:02:26;;;;;;;7.68;2.35;;;12.20;1.00;12.80;94711.00;;;;7390204;19;20132;-77
2022/06/11 01:05:03;;;;;;;6.38;2.22;;;12.20;6.10;12.80;94732.00;;;;7385401;19;20149;-77
2022/06/11 01:08:10;;;;;;;5.72;2.30;;;12.10;57.60;12.70;94738.00;;;;7384139;19;21308;-76
2022/06/11 01:11:08;;;;;;;5.75;2.10;;;12.00;99.90;12.70;94736.00;;;;7387970;19;20155;-78
2022/06/11 01:14:06;;;;;;;4.13;2.42;;;11.90;99.90;12.70;94731.00;;;;7387494;19;20221;-78
2022/06/11 01:16:42;;;;;;;4.53;2.30;;;11.80;99.90;12.60;94737.00;;;;7388445;19;20153;-77
2022/06/11 01:20:01;;;;;;;3.00;2.08;;;11.80;99.90;12.50;94736.00;;;;7387908;19;20188;-76
2022/06/11 01:23:27;;;;;;;7.03;2.20;;;11.70;99.90;12.50;94738.00;;;;7386281;19;20163;-76
2022/06/11 01:26:34;;;;;;;5.30;2.67;;;11.60;99.90;12.50;94738.00;;;;7390627;19;20133;-77
2022/06/11 01:29:38;;;;;;;8.07;2.50;;;11.60;99.90;12.40;94740.00;;;;7388229;19;20145;-77
2022/06/11 01:32:46;;;;;;;6.13;2.22;;;11.50;99.90;12.50;94741.00;;;;7388309;19;20156;-78
2022/06/11 01:35:37;;;;;;;3.83;2.15;;;11.50;99.90;12.50;94717.00;;;;7388375;19;20173;-76
2022/06/11 01:38:38;;;;;;;4.03;2.13;;;11.40;99.90;12.50;94698.00;;;;7387646;19;20781;-76
2022/06/11 01:41:53;;;;;;;4.70;2.53;;;11.50;99.90;12.40;94731.00;;;;7387605;19;20204;-77
2022/06/11 01:44:39;;;;;;;4.20;2.38;;;11.50;99.90;12.40;94712.00;;;;7388422;19;20464;-77
2022/06/11 01:47:07;;;;;;;3.95;2.55;;;11.40;99.90;12.30;94738.00;;;;7383208;19;20144;-77
2022/06/11 01:49:48;;;;;;;2.65;2.10;;;11.40;99.90;12.30;94735.00;;;;7387806;19;20160;-76
2022/06/11 01:52:34;;;;;;;4.22;2.38;;;11.40;99.90;12.40;94723.00;;;;7388164;19;21273;-76
2022/06/11 01:55:55;;;;;;;5.35;2.85;;;11.50;1.00;12.30;94729.00;;;;7386443;19;20628;-77
2022/06/11 01:58:58;;;;;;;4.05;2.30;;;11.50;1.00;12.40;94725.00;;;;7386052;19;20174;-77
2022/06/11 02:02:19;;;;;;;6.50;2.28;;;11.50;1.00;12.50;94712.00;;;;7388732;19;20136;-76
2022/06/11 02:05:13;;;;;;;6.80;2.20;;;11.50;1.00;12.50;94719.00;;;;7379090;19;20160;-78
2022/06/11 02:08:28;;;;;;;7.38;2.75;;;11.60;99.90;12.60;94716.00;;;;7383404;19;20152;-76
2022/06/11 02:11:35;;;;;;;5.25;2.38;;;11.70;99.90;12.50;94716.00;;;;7387650;19;20588;-77
2022/06/11 02:14:45;;;;;;;7.18;2.50;;;11.70;99.90;12.80;94667.00;;;;7387736;19;20144;-77
2022/06/11 02:17:23;;;;;;;3.45;2.40;;;11.70;99.90;12.70;94698.00;;;;7387773;19;20148;-78
2022/06/11 02:20:08;;;;;;;4.00;2.08;;;11.80;99.90;12.70;94716.00;;;;7387499;19;20173;-77
2022/06/11 02:22:50;;;;;;;6.28;2.05;;;11.80;99.90;12.80;94683.00;;;;7385168;19;20636;-77
2022/06/11 02:25:45;;;;;;;3.97;2.13;;;11.90;99.90;13.30;94688.00;;;;7386778;19;20471;-76
2022/06/11 02:28:21;;;;;;;4.63;2.22;;;12.00;94.30;13.30;94694.00;;;;7387321;19;20192;-75
2022/06/11 02:31:02;;;;;;;6.05;2.10;;;12.10;69.80;13.30;94716.00;;;;7386335;19;20149;-77
2022/06/11 02:33:33;;;;;;;4.32;1.90;;;12.20;13.10;13.20;94715.00;;;;7388002;19;20146;-76
2022/06/11 02:36:10;;;;;;;5.25;2.00;;;12.30;8.30;13.10;94711.00;;;;7387561;19;20616;-76
2022/06/11 02:38:38;;;;;;;5.00;2.25;;;12.20;13.40;13.20;94683.00;;;;7385046;19;20148;-76
2022/06/11 02:41:18;;;;;;;5.55;2.47;;;12.20;1.00;13.10;94684.00;;;;7388094;19;20136;-75
2022/06/11 02:43:53;;;;;;;4.20;2.17;;;12.20;1.00;13.20;94683.00;;;;7386679;19;20174;-76
2022/06/11 02:49:28;;;;;;;2.78;2.00;;;12.20;1.00;13.10;94708.00;;;;7386821;19;20191;-78
2022/06/11 02:52:02;;;;;;;2.15;1.95;;;12.30;1.00;13.10;94700.00;;;;7387125;19;20599;-75
2022/06/11 02:54:43;;;;;;;5.65;2.20;;;12.20;1.00;13.20;94718.00;;;;7385270;19;20244;-75
2022/06/11 02:57:25;;;;;;;7.55;2.20;;;12.20;4.80;13.10;94713.00;;;;7385560;19;20235;-75
2022/06/11 02:59:59;;;;;;;2.88;2.00;;;12.20;6.20;13.20;94701.00;;;;7388093;19;20155;-75
2022/06/11 03:02:26;;;;;;;4.63;2.10;;;12.20;1.00;13.40;94695.00;;;;7393263;19;20152;-75
2022/06/11 03:04:55;;;;;;;4.45;1.80;;;12.20;1.00;13.30;94706.00;;;;7392494;19;20232;-75
2022/06/11 03:07:28;;;;;;;6.65;2.28;;;12.30;1.00;13.20;94701.00;;;;7392374;19;20181;-76
2022/06/11 03:09:56;;;;;;;4.22;2.00;;;12.30;1.00;13.30;94718.00;;;;7389802;19;20159;-75
2022/06/11 03:12:23;;;;;;;5.05;2.00;;;12.30;1.00;13.60;94710.00;;;;7393024;19;20529;-75
2022/06/11 03:14:56;;;;;;;6.38;1.88;;;12.30;1.00;13.60;94671.00;;;;7393166;19;20596;-75
2022/06/11 03:17:23;;;;;;;5.03;2.00;;;12.40;1.00;13.40;94720.00;;;;7392808;19;20490;-76
2022/06/11 03:19:53;;;;;;;2.90;1.88;;;12.50;1.00;13.40;94715.00;;;;7393119;19;20156;-75
2022/06/11 03:22:30;;;;;;;5.00;1.83;;;12.50;1.00;13.30;94723.00;;;;7389332;19;20177;-77
2022/06/11 03:24:57;;;;;;;8.20;2.30;;;12.40;1.00;13.20;94702.00;;;;7392003;19;20145;-76
2022/06/11 03:27:25;;;;;;;4.15;1.88;;;12.30;1.00;13.10;94724.00;;;;7392235;19;20151;-76
2022/06/11 03:29:58;;;;;;;5.38;2.17;;;12.40;1.00;13.20;94701.00;;;;7392337;19;20204;-78
2022/06/11 03:32:26;;;;;;;3.70;1.80;;;12.30;1.00;13.40;94712.00;;;;7392226;19;20456;-76
2022/06/11 03:34:53;;;;;;;4.32;2.13;;;12.30;1.00;13.40;94716.00;;;;7391684;19;20153;-75
2022/06/11 03:37:26;;;;;;;3.35;1.90;;;12.40;1.00;13.60;94706.00;;;;7392074;19;20142;-76
2022/06/11 03:39:54;;;;;;;5.13;2.22;;;12.50;1.00;13.10;94749.00;;;;7392316;19;20507;-76
2022/06/11 03:42:21;;;;;;;7.80;2.38;;;12.50;1.00;13.40;94737.00;;;;7391413;19;20224;-76
2022/06/11 03:44:54;;;;;;;4.70;2.30;;;12.50;1.00;13.50;94707.00;;;;7392215;19;20149;-77
2022/06/11 03:47:22;;;;;;;2.95;1.98;;;12.50;1.00;13.50;94710.00;;;;7391345;19;20640;-75
2022/06/11 03:49:50;;;;;;;4.50;2.08;;;12.50;1.00;13.40;94706.00;;;;7392770;19;20616;-76
2022/06/11 03:52:27;;;;;;;4.63;1.98;;;12.50;1.00;13.30;94709.00;;;;7392459;19;20617;-75
2022/06/11 03:55:01;;;;;;;6.82;2.15;;;12.50;1.00;13.40;94713.00;;;;7391076;19;20159;-76
2022/06/11 03:57:44;;;;;;;5.57;2.35;;;12.50;1.00;13.40;94746.00;;;;7390205;19;20626;-76
2022/06/11 04:01:14;;;;;;;6.68;2.20;;;12.50;1.00;13.40;94725.00;;;;7390685;19;20811;-76
2022/06/11 04:03:14;;;;;;;2.67;1.60;;;12.50;1.00;13.40;94740.00;;;;7391533;19;20637;-75
2022/06/11 04:05:43;;;;;;;4.82;1.83;;;12.50;1.00;13.40;94739.00;;;;7390257;19;20156;-75
2022/06/11 04:08:12;;;;;;;7.40;2.10;;;12.40;1.00;13.30;94737.00;;;;7392344;19;20193;-76
2022/06/11 04:10:46;;;;;;;4.60;1.98;;;12.50;37.20;13.40;94725.00;;;;7390138;19;20212;-75
2022/06/11 04:13:15;;;;;;;4.20;2.15;;;12.40;3.60;13.50;94735.00;;;;7390447;19;20722;-75
2022/06/11 04:15:44;;;;;;;6.18;2.17;;;12.50;1.20;13.90;94752.00;;;;7388546;19;20149;-76
2022/06/11 04:18:38;;;;;;;3.05;2.08;;;12.60;1.00;13.80;94746.00;;;;7390398;19;20195;-76
2022/06/11 04:21:12;;;;;;;2.45;1.75;;;12.70;1.00;13.80;94746.00;;;;7390239;19;20176;-76
2022/06/11 04:23:51;;;;;;;5.13;1.90;;;12.70;24.80;13.70;94756.00;;;;7390020;19;20129;-74
2022/06/11 04:26:28;;;;;;;5.30;2.13;;;12.70;46.90;13.60;94755.00;;;;7389616;19;20153;-75
2022/06/11 04:29:05;;;;;;;5.18;1.90;;;12.70;23.60;13.70;94743.00;;;;7390573;19;21130;-75
2022/06/11 04:31:33;;;;;;;6.95;1.95;;;12.80;1.00;13.90;94754.00;;;;7392254;19;20136;-75
2022/06/11 04:34:10;;;;;;;6.22;2.05;;;12.80;1.00;14.20;94738.00;;;;7390233;19;20224;-74
2022/06/11 04:36:48;;;;;;;3.58;1.90;;;13.00;1.00;14.60;94747.00;;;;7389825;19;20177;-77
2022/06/11 04:39:19;;;;;;;4.50;2.33;;;13.20;1.00;14.90;94750.00;;;;7387624;19;20149;-74
2022/06/11 04:41:55;;;;;;;3.35;1.98;;;13.40;1.00;14.80;94736.00;;;;7390114;19;20617;-75
2022/06/11 04:44:23;;;;;;;5.32;2.28;;;13.60;1.00;14.80;94715.00;;;;7388725;19;20222;-76
2022/06/11 04:47:06;;;;;;;3.85;2.00;;;13.70;1.00;14.70;94748.00;;;;7387260;19;20157;-76
2022/06/11 04:49:50;;;;;;;10.38;1.98;;;13.80;1.00;14.90;94753.00;;;;7389770;19;20148;-75
2022/06/11 04:52:18;;;;;;;5.75;2.13;;;13.90;1.00;15.00;94743.00;;;;7390781;19;20181;-76
2022/06/11 04:54:59;;;;;;;4.78;2.20;;;14.00;1.00;15.00;94758.00;;;;7390453;19;20156;-77
2022/06/11 04:57:33;;;;;;;3.20;2.00;;;14.00;1.00;15.20;94759.00;;;;7388117;19;20152;-74
2022/06/11 05:00:08;;;;;;;6.72;2.35;;;14.10;1.00;15.30;94738.00;;;;7386861;19;20153;-76
2022/06/11 05:02:36;;;;;;;5.40;2.10;;;14.20;1.00;15.40;94757.00;;;;7390011;19;20519;-76
2022/06/11 05:05:04;;;;;;;3.08;1.85;;;14.30;1.00;15.50;94761.00;;;;7389126;19;21059;-75
2022/06/11 05:07:39;;;;;;;3.53;2.05;;;14.40;1.00;15.70;94777.00;;;;7388420;19;20175;-76
2022/06/11 05:10:09;;;;;;;5.07;2.15;;;14.60;1.00;15.90;94768.00;;;;7389562;19;20537;-75
2022/06/11 05:12:36;;;;;;;4.00;1.80;;;14.80;1.00;16.20;94774.00;;;;7388394;19;20613;-74
2022/06/11 05:15:11;;;;;;;2.22;1.83;;;15.00;1.00;16.40;94752.00;;;;7387762;19;20228;-75
2022/06/11 05:17:40;;;;;;;3.33;1.70;;;15.20;1.00;16.40;94778.00;;;;7387357;19;20169;-75
2022/06/11 05:20:09;;;;;;;4.05;1.95;;;15.40;1.00;16.50;94763.00;;;;7386571;19;20184;-75
2022/06/11 05:22:45;;;;;;;10.50;2.55;;;15.70;1.00;16.40;94761.00;;;;7385425;19;20156;-77
2022/06/11 05:25:15;;;;;;;3.28;2.03;;;16.00;99.90;16.60;94769.00;;;;7388172;19;20125;-76
2022/06/11 05:27:46;;;;;;;2.83;1.90;;;16.20;99.90;17.00;94779.00;;;;7390991;19;20137;-75
2022/06/11 05:30:27;;;;;;;3.58;1.80;;;16.30;99.90;16.90;94762.00;;;;7389569;19;20502;-77
2022/06/11 05:32:54;;;;;;;3.00;2.13;;;16.50;99.90;17.20;94770.00;;;;7383612;19;20167;-75
2022/06/11 05:35:32;;;;;;;4.45;1.88;;;16.70;99.90;17.20;94781.00;;;;7385852;19;20872;-77
2022/06/11 05:38:04;;;;;;;4.53;1.90;;;16.80;99.90;17.40;94789.00;;;;7388393;19;20642;-76
2022/06/11 05:40:42;;;;;;;3.38;1.90;;;17.00;99.90;17.40;94788.00;;;;7388637;19;20164;-75
2022/06/11 05:43:12;;;;;;;5.22;1.98;;;17.20;99.90;17.70;94776.00;;;;7390969;19;20187;-76
2022/06/11 05:45:56;;;;;;;3.47;2.10;;;17.30;55.50;18.10;94793.00;;;;7390968;19;20484;-75
2022/06/11 05:48:33;;;;;;;3.42;2.10;;;17.40;99.90;18.30;94771.00;;;;7391187;19;20222;-74
2022/06/11 05:51:12;;;;;;;3.72;2.10;;;17.60;1.00;18.30;94786.00;;;;7389559;19;20235;-75
2022/06/11 05:53:48;;;;;;;8.93;1.73;;;17.80;99.90;18.30;94759.00;;;;7388990;19;20641;-75
2022/06/11 05:56:33;;;;;;;3.38;1.65;;;18.10;1.00;18.80;94791.00;;;;7386544;19;20156;-75
2022/06/11 05:59:10;;;;;;;2.08;1.60;;;18.20;1.00;19.00;94773.00;;;;7388836;19;20144;-75
2022/06/11 06:01:47;;;;;;;3.85;1.70;;;18.30;1.00;19.30;94782.00;;;;7386839;19;20765;-76
2022/06/11 06:04:21;;;;;;;3.90;1.52;;;18.40;1.00;19.40;94774.00;;;;7386650;19;20165;-76
2022/06/11 06:06:49;;;;;;;3.40;1.63;;;18.60;1.00;19.70;94764.00;;;;7386696;19;20167;-76
2022/06/11 06:09:16;;;;;;;5.53;1.80;;;18.70;1.00;19.80;94770.00;;;;7390340;19;20156;-76
2022/06/11 06:11:50;;;;;;;5.22;1.85;;;18.90;1.00;19.90;94773.00;;;;7388785;19;20144;-77
2022/06/11 06:14:17;;;;;;;4.38;1.67;;;19.00;1.00;20.10;94777.00;;;;7387674;19;20199;-77
2022/06/11 06:16:44;;;;;;;6.97;1.73;;;19.20;1.00;20.30;94782.00;;;;7390160;19;20128;-75
2022/06/11 06:19:19;;;;;;;4.30;2.17;;;19.40;1.00;20.40;94769.00;;;;7387755;19;20158;-76
2022/06/11 06:21:47;;;;;;;6.63;1.60;;;19.50;1.00;20.40;94777.00;;;;7389883;19;20231;-77
2022/06/11 06:24:14;;;;;;;6.80;1.85;;;19.70;1.00;20.30;94810.00;;;;7388928;19;20271;-76
2022/06/11 06:26:49;;;;;;;3.97;1.95;;;19.70;99.90;20.50;94758.00;;;;7391103;19;20147;-77
2022/06/11 06:29:16;;;;;;;7.60;1.95;;;19.80;99.90;20.50;94786.00;;;;7390944;19;20846;-77
2022/06/11 06:31:44;;;;;;;5.40;1.73;;;19.80;99.90;20.50;94806.00;;;;7388629;19;20155;-77
2022/06/11 06:34:18;;;;;;;3.55;1.85;;;19.90;99.90;20.50;94791.00;;;;7395803;19;20146;-78
2022/06/11 06:36:45;;;;;;;3.22;1.80;;;19.90;99.90;20.60;94819.00;;;;7394167;19;20179;-78
2022/06/11 06:39:13;;;;;;;3.60;1.80;;;20.00;99.90;20.70;94800.00;;;;7397143;19;20177;-77
2022/06/11 06:41:47;;;;;;;2.75;1.50;;;20.10;99.90;20.80;94823.00;;;;7398033;19;20132;-76
2022/06/11 06:44:16;;;;;;;4.93;1.90;;;20.20;1.00;21.20;94795.00;;;;7397349;19;20196;-78
2022/06/11 06:46:44;;;;;;;3.30;1.85;;;20.40;1.00;21.60;94805.00;;;;7395960;19;20597;-77
2022/06/11 06:49:18;;;;;;;2.42;1.70;;;20.50;99.90;21.40;94816.00;;;;7396969;19;20156;-77
2022/06/11 06:51:45;;;;;;;4.53;1.83;;;20.70;99.90;21.60;94813.00;;;;7395704;19;20125;-78
2022/06/11 06:54:13;;;;;;;7.05;1.70;;;20.80;99.90;21.80;94809.00;;;;7394937;19;20155;-76
2022/06/11 06:57:04;;;;;;;5.03;2.28;;;21.00;1.00;22.10;94795.00;;;;7395737;19;20137;-76
2022/06/11 07:00:17;;;;;;;3.25;1.73;;;21.10;1.40;22.20;94819.00;;;;7384687;19;20152;-78
2022/06/11 07:03:11;;;;;;;6.47;1.80;;;21.40;99.90;22.20;94828.00;;;;7389541;19;20153;-76
2022/06/11 07:05:41;;;;;;;3.63;1.58;;;21.40;99.90;22.50;94815.00;;;;7395911;19;20153;-75
2022/06/11 07:08:16;;;;;;;4.32;1.90;;;21.60;99.90;22.20;94811.00;;;;7392525;19;20156;-76
2022/06/11 07:10:53;;;;;;;4.60;2.03;;;21.60;99.90;22.00;94816.00;;;;7395648;19;20153;-76
2022/06/11 07:13:27;;;;;;;4.25;2.00;;;21.70;99.90;22.30;94817.00;;;;7396301;19;20144;-76
2022/06/11 07:15:56;;;;;;;4.97;1.90;;;21.70;99.90;22.20;94818.00;;;;7395331;19;20178;-76
2022/06/11 07:18:38;;;;;;;2.83;2.03;;;21.80;99.90;22.50;94815.00;;;;7394681;19;20170;-76
2022/06/11 07:21:22;;;;;;;3.22;2.00;;;21.90;99.90;22.50;94824.00;;;;7392414;19;20172;-76
2022/06/11 07:23:57;;;;;;;7.30;1.73;;;22.00;99.90;22.90;94818.00;;;;7392022;19;20226;-76
2022/06/11 07:26:41;;;;;;;5.45;2.03;;;22.10;99.90;23.10;94806.00;;;;7392983;19;20159;-77
2022/06/11 07:29:20;;;;;;;3.63;1.50;;;22.30;99.90;23.10;94816.00;;;;7393947;19;20145;-77
2022/06/11 07:32:01;;;;;;;5.32;1.70;;;22.40;99.90;23.10;94796.00;;;;7392855;19;20133;-77
2022/06/11 07:34:30;;;;;;;5.85;1.90;;;22.50;99.90;23.00;94805.00;;;;7394685;19;20136;-76
2022/06/11 07:37:04;;;;;;;6.63;1.70;;;22.50;99.90;22.90;94821.00;;;;7394673;19;20141;-76
2022/06/11 07:39:34;;;;;;;3.58;1.50;;;22.60;99.90;22.80;94761.00;;;;7391951;19;20153;-75
2022/06/11 07:42:01;;;;;;;6.57;2.40;;;22.60;99.90;23.00;94806.00;;;;7395188;19;20184;-76
2022/06/11 07:44:36;;;;;;;7.38;2.05;;;22.60;99.90;22.90;94795.00;;;;7394770;19;20140;-77
2022/06/11 07:47:05;;;;;;;5.32;1.88;;;22.60;99.90;22.60;94815.00;;;;7394387;19;20579;-76
2022/06/11 07:49:33;;;;;;;3.13;1.77;;;22.70;99.90;22.30;94819.00;;;;7393998;19;20604;-77
2022/06/11 07:52:07;;;;;;;4.70;2.05;;;22.70;99.90;22.10;94830.00;;;;7395182;19;20160;-76
2022/06/11 07:54:48;;;;;;;5.07;1.77;;;22.60;99.90;21.60;94822.00;;;;7393847;19;20144;-74
2022/06/11 07:57:22;;;;;;;2.97;1.75;;;22.30;99.90;21.00;94838.00;;;;7393528;19;20195;-75
2022/06/11 07:59:49;;;;;;;3.72;1.70;;;22.00;99.90;20.80;94826.00;;;;7390914;19;20601;-76
2022/06/11 08:02:17;;;;;;;6.55;1.80;;;21.60;99.90;20.60;94829.00;;;;7392463;19;20133;-76
2022/06/11 08:04:55;;;;;;;2.70;1.77;;;21.30;99.90;20.70;94853.00;;;;7392127;19;20129;-75
2022/06/11 08:07:22;;;;;;;2.75;1.63;;;21.10;99.90;20.60;94845.00;;;;7389854;19;20145;-76
2022/06/11 08:09:49;;;;;;;5.55;1.88;;;20.90;99.90;20.40;94846.00;;;;7388581;19;20483;-75
2022/06/11 08:12:26;;;;;;;4.75;1.58;;;20.80;99.90;20.30;94828.00;;;;7390696;19;20159;-75
2022/06/11 08:14:56;;;;;;;3.53;1.70;;;20.60;99.90;21.30;94823.00;;;;7392253;19;20149;-77
2022/06/11 08:17:33;;;;;;;2.95;1.95;;;20.70;99.90;22.00;94812.00;;;;7389584;19;20156;-77
2022/06/11 08:20:03;;;;;;;4.20;1.63;;;21.10;99.90;21.90;94812.00;;;;7389125;19;20141;-76
2022/06/11 08:22:37;;;;;;;5.10;1.70;;;21.50;99.90;22.80;94793.00;;;;7388089;19;20183;-77
2022/06/11 08:25:05;;;;;;;4.93;1.80;;;21.90;99.90;23.70;94789.00;;;;7385160;19;20148;-75
2022/06/11 08:27:33;;;;;;;3.85;1.70;;;22.50;99.90;23.80;94799.00;;;;7391124;19;21094;-75
2022/06/11 08:30:07;;;;;;;5.68;1.80;;;23.10;99.90;24.40;94805.00;;;;7389934;19;20152;-75
2022/06/11 08:32:35;;;;;;;4.05;1.70;;;23.70;99.90;25.00;94827.00;;;;7389982;19;20153;-74
2022/06/11 08:35:03;;;;;;;4.45;1.80;;;24.30;99.90;24.30;94837.00;;;;7385538;19;20156;-75
2022/06/11 08:37:37;;;;;;;5.65;1.80;;;24.30;99.90;23.40;94842.00;;;;7388170;19;20156;-74
2022/06/11 08:40:16;;;;;;;3.75;1.70;;;23.90;99.90;22.70;94840.00;;;;7388065;19;20935;-74
2022/06/11 08:43:03;;;;;;;3.13;1.55;;;23.50;99.90;22.10;94825.00;;;;7387223;19;20220;-75
2022/06/11 08:45:52;;;;;;;4.38;1.83;;;23.00;99.90;22.90;94819.00;;;;7391742;19;20789;-75
2022/06/11 08:48:46;;;;;;;3.20;1.73;;;22.90;99.90;23.50;94833.00;;;;7389763;19;20140;-74
2022/06/11 08:51:35;;;;;;;4.07;1.63;;;22.90;99.90;23.80;94810.00;;;;7392300;19;20141;-75
2022/06/11 08:54:15;;;;;;;4.72;1.83;;;23.20;99.90;23.80;94854.00;;;;7390635;19;20149;-74
2022/06/11 08:57:13;;;;;;;4.13;2.10;;;23.50;99.90;22.90;94832.00;;;;7387185;19;20155;-75
2022/06/11 09:00:05;;;;;;;5.32;2.35;;;23.10;99.90;23.30;94824.00;;;;7392899;19;20480;-76
2022/06/11 09:02:53;;;;;;;4.53;1.92;;;23.00;99.90;23.80;94828.00;;;;7392085;19;20856;-75
2022/06/11 09:05:59;;;;;;;4.20;1.50;;;23.20;99.90;25.10;94822.00;;;;7392130;19;20537;-76
2022/06/11 09:08:57;;;;;;;5.55;1.80;;;23.70;99.90;24.60;94833.00;;;;7390943;19;20148;-77
2022/06/11 09:12:00;;;;;;;6.13;1.80;;;24.10;99.90;23.70;94840.00;;;;7392953;19;20129;-76
2022/06/11 09:15:17;;;;;;;4.93;2.10;;;24.00;99.90;23.50;94793.00;;;;7391173;19;20153;-76
2022/06/11 09:18:23;;;;;;;4.43;2.08;;;23.90;99.90;24.80;94790.00;;;;7389313;19;20133;-75
2022/06/11 09:21:43;;;;;;;6.43;1.90;;;24.50;99.90;25.70;94793.00;;;;7388149;19;20208;-74
2022/06/11 09:24:43;;;;;;;3.38;1.70;;;25.10;99.90;26.50;94788.00;;;;7391417;19;20163;-75
2022/06/11 09:27:30;;;;;;;4.43;1.75;;;25.80;99.90;26.50;94799.00;;;;7389440;19;20539;-75
2022/06/11 09:30:24;;;;;;;5.20;1.73;;;26.40;99.90;26.80;94799.00;;;;7391713;19;20167;-75
2022/06/11 09:33:07;;;;;;;3.42;1.67;;;27.00;99.90;27.40;94798.00;;;;7392331;19;20172;-75
2022/06/11 09:36:02;;;;;;;3.63;1.50;;;27.40;99.90;26.20;94825.00;;;;7389290;19;20152;-75
2022/06/11 09:39:10;;;;;;;5.60;1.98;;;26.90;99.90;24.60;94827.00;;;;7390643;19;20157;-75
2022/06/11 09:42:34;;;;;;;2.85;1.67;;;26.20;99.90;24.20;94826.00;;;;7389822;19;20149;-75
2022/06/11 09:45:20;;;;;;;4.22;1.67;;;25.60;99.90;24.00;94808.00;;;;7390322;19;20157;-78
2022/06/11 09:48:41;;;;;;;3.55;1.83;;;25.00;99.90;22.80;94836.00;;;;7389787;19;20129;-76
2022/06/11 09:51:30;;;;;;;2.50;1.70;;;24.60;99.90;22.30;94824.00;;;;7390933;19;20160;-76
2022/06/11 09:54:47;;;;;;;4.25;1.90;;;24.10;99.90;22.50;94809.00;;;;7391516;19;20156;-75
2022/06/11 09:57:43;;;;;;;4.28;1.92;;;23.50;99.90;22.90;94813.00;;;;7391337;19;20155;-77
2022/06/11 10:00:48;;;;;;;5.68;1.85;;;23.40;99.90;25.30;94793.00;;;;7388837;19;20490;-76
2022/06/11 10:03:45;;;;;;;3.40;1.70;;;24.20;99.90;26.00;94808.00;;;;7390930;19;20587;-76
2022/06/11 10:06:48;;;;;;;3.78;1.70;;;25.00;99.90;26.50;94815.00;;;;7389284;19;20169;-77
2022/06/11 10:10:06;;;;;;;2.30;1.75;;;25.80;99.90;26.60;94811.00;;;;7385875;19;21433;-75
2022/06/11 10:13:08;;;;;;;4.65;1.85;;;26.10;99.90;27.00;94805.00;;;;7387376;19;20157;-76
2022/06/11 10:15:42;;;;;;;3.15;1.90;;;26.60;99.90;27.40;94813.00;;;;7390811;19;20651;-76
2022/06/11 10:18:44;;;;;;;4.60;1.80;;;27.10;99.90;26.50;94802.00;;;;7388448;19;20604;-77
2022/06/11 10:21:19;;;;;;;2.85;1.75;;;27.60;99.90;25.90;94777.00;;;;7387019;19;20179;-76
2022/06/11 10:24:11;;;;;;;2.85;1.67;;;27.70;99.90;26.00;94816.00;;;;7388874;19;20562;-76
2022/06/11 10:26:53;;;;;;;3.28;1.95;;;27.70;99.90;26.60;94827.00;;;;7388855;19;20157;-75
2022/06/11 10:29:41;;;;;;;2.75;2.00;;;27.80;99.90;27.50;94820.00;;;;7388586;19;20192;-75
2022/06/11 10:32:27;;;;;;;3.30;1.92;;;27.90;99.90;28.00;94815.00;;;;7387273;19;20583;-76
2022/06/11 10:35:22;;;;;;;2.72;1.65;;;28.10;99.90;27.30;94812.00;;;;7384442;19;20655;-75
2022/06/11 10:38:25;;;;;;;5.25;1.80;;;28.10;99.90;27.90;94818.00;;;;7387751;19;20137;-75
2022/06/11 10:41:03;;;;;;;4.68;1.75;;;28.30;99.90;26.80;94826.00;;;;7384571;19;20518;-75
2022/06/11 10:44:11;;;;;;;3.22;1.83;;;27.80;99.90;25.10;94842.00;;;;7385474;19;20152;-75
2022/06/11 10:46:46;;;;;;;3.22;1.80;;;26.90;99.90;24.10;94818.00;;;;7386164;19;20137;-74
2022/06/11 10:49:24;;;;;;;3.60;1.65;;;25.90;99.90;23.60;94828.00;;;;7385921;19;20188;-75
2022/06/11 10:52:25;;;;;;;3.63;2.13;;;25.10;99.90;23.20;94837.00;;;;7386888;19;20652;-75
2022/06/11 10:54:52;;;;;;;4.13;1.80;;;24.30;99.90;22.90;94834.00;;;;7388373;19;20133;-76
2022/06/11 10:57:36;;;;;;;3.53;1.73;;;23.70;99.90;22.70;94835.00;;;;7388825;19;20159;-76
2022/06/11 11:01:16;;;;;;;3.58;1.88;;;23.20;99.90;24.10;94807.00;;;;7386930;19;20462;-77
2022/06/11 11:04:09;;;;;;;3.10;1.65;;;23.50;99.90;25.50;94830.00;;;;7385447;19;20139;-75
2022/06/11 11:06:37;;;;;;;4.65;2.13;;;24.70;99.90;25.70;94811.00;;;;7386147;19;20170;-75
2022/06/11 11:09:24;;;;;;;3.17;2.08;;;25.50;99.90;25.80;94798.00;;;;7384642;19;20153;-75
2022/06/11 11:11:58;;;;;;;4.88;2.00;;;25.90;99.90;26.80;94754.00;;;;7386330;19;20152;-75
2022/06/11 11:14:39;;;;;;;2.97;1.70;;;26.40;99.90;26.60;94823.00;;;;7386981;19;20502;-78
2022/06/11 11:17:31;;;;;;;4.43;1.58;;;26.80;99.90;25.90;94809.00;;;;7387357;19;20614;-77
2022/06/11 11:20:29;;;;;;;3.63;1.63;;;26.70;99.90;26.80;94811.00;;;;7385749;19;20151;-77
2022/06/11 11:23:22;;;;;;;7.35;1.85;;;26.80;99.90;27.00;94786.00;;;;7392570;19;20125;-77
2022/06/11 11:26:33;;;;;;;3.42;1.63;;;26.90;99.90;26.30;94822.00;;;;7392372;19;20139;-77
2022/06/11 11:29:14;;;;;;;2.85;1.88;;;26.50;99.90;25.90;94777.00;;;;7394193;19;20640;-76
2022/06/11 11:31:57;;;;;;;2.33;1.70;;;26.10;99.90;26.20;94811.00;;;;7394044;19;20139;-78
2022/06/11 11:34:30;;;;;;;6.32;1.77;;;26.30;99.90;25.20;94826.00;;;;7393073;19;20162;-77
2022/06/11 11:37:14;;;;;;;3.97;1.77;;;26.40;99.90;24.70;94794.00;;;;7393241;19;20228;-78
2022/06/11 11:40:21;;;;;;;3.17;2.05;;;26.00;99.90;26.20;94785.00;;;;7393602;19;20713;-78
2022/06/11 11:43:02;;;;;;;3.40;1.85;;;26.20;99.90;27.30;94785.00;;;;7393126;19;20149;-77
2022/06/11 11:45:58;;;;;;;5.05;1.80;;;26.90;99.90;28.50;94784.00;;;;7393299;19;20208;-77
2022/06/11 11:48:46;;;;;;;3.63;1.85;;;27.70;99.90;28.60;94761.00;;;;7389480;19;20511;-77
2022/06/11 11:51:41;;;;;;;5.18;2.10;;;28.40;99.90;29.30;94733.00;;;;7389651;19;20559;-77
2022/06/11 11:54:23;;;;;;;5.10;1.75;;;28.90;99.90;29.80;94757.00;;;;7390005;19;20152;-76
2022/06/11 11:57:20;;;;;;;3.35;1.70;;;29.00;99.90;29.40;94768.00;;;;7389549;19;20830;-77
2022/06/11 12:00:39;;;;;;;4.78;2.25;;;29.30;99.90;29.30;94788.00;;;;7390638;19;20161;-77
2022/06/11 12:03:26;;;;;;;4.45;1.77;;;29.70;99.90;29.00;94784.00;;;;7389319;19;20696;-76